createdAt,value
2019-03-31T00:03:53.749Z,6.10
2019-03-31T00:08:58.666Z,6.00
2019-03-31T00:14:03.498Z,5.90
2019-03-31T00:19:08.353Z,5.90
2019-03-31T00:24:13.273Z,5.80
2019-03-31T00:29:18.117Z,5.80
2019-03-31T00:34:22.960Z,5.70
2019-03-31T00:39:27.658Z,5.70
2019-03-31T00:44:32.420Z,5.70
2019-03-31T00:49:37.268Z,5.60
2019-03-31T00:54:42.041Z,5.60
2019-03-31T00:59:46.880Z,5.50
2019-03-31T01:04:51.788Z,5.50
2019-03-31T01:09:58.430Z,5.40
2019-03-31T01:15:06.317Z,5.40
2019-03-31T01:20:12.565Z,5.30
2019-03-31T01:25:18.804Z,5.20
2019-03-31T01:30:24.117Z,5.30
2019-03-31T01:35:29.129Z,5.20
2019-03-31T01:40:34.048Z,5.10
2019-03-31T01:45:38.964Z,5.00
2019-03-31T01:50:43.885Z,5.00
2019-03-31T01:55:49.091Z,4.90
2019-03-31T02:00:55.580Z,4.80
2019-03-31T02:06:00.425Z,4.80
2019-03-31T02:11:05.433Z,4.70
2019-03-31T02:16:10.332Z,4.60
2019-03-31T02:21:15.229Z,4.60
2019-03-31T02:26:21.621Z,4.60
2019-03-31T02:31:26.460Z,4.70
2019-03-31T02:36:31.288Z,4.60
2019-03-31T02:41:36.124Z,4.50
2019-03-31T02:46:40.969Z,4.40
2019-03-31T02:51:45.809Z,4.50
2019-03-31T02:56:51.045Z,4.50
2019-03-31T03:01:57.796Z,4.60
2019-03-31T03:07:04.334Z,4.70
2019-03-31T03:12:11.878Z,4.80
2019-03-31T03:17:16.717Z,4.90
2019-03-31T03:22:21.561Z,4.90
2019-03-31T03:27:26.496Z,5.00
2019-03-31T03:32:31.237Z,5.10
2019-03-31T03:37:36.154Z,5.10
2019-03-31T03:42:40.931Z,5.20
2019-03-31T03:47:45.764Z,5.30
2019-03-31T03:52:50.547Z,5.20
2019-03-31T03:57:55.297Z,5.10
2019-03-31T04:03:00.214Z,5.10
2019-03-31T04:08:05.063Z,5.00
2019-03-31T04:13:09.892Z,4.90
2019-03-31T04:18:14.743Z,4.80
2019-03-31T04:23:19.586Z,5.00
2019-03-31T04:28:24.532Z,5.00
2019-03-31T04:33:48.476Z,5.10
2019-03-31T04:38:35.908Z,5.30
2019-03-31T04:43:40.716Z,5.30
2019-03-31T04:48:45.548Z,5.30
2019-03-31T04:53:50.384Z,5.20
2019-03-31T04:58:55.216Z,5.10
2019-03-31T05:04:05.001Z,5.00
2019-03-31T05:09:07.044Z,5.10
2019-03-31T05:14:11.869Z,5.10
2019-03-31T05:19:16.708Z,5.20
2019-03-31T05:24:21.550Z,5.40
2019-03-31T05:29:26.726Z,5.50
2019-03-31T05:34:31.566Z,5.80
2019-03-31T05:39:36.404Z,5.90
2019-03-31T05:44:41.228Z,6.00
2019-03-31T05:49:46.070Z,6.20
2019-03-31T05:54:50.915Z,6.30
2019-03-31T05:59:55.668Z,6.40
2019-03-31T06:05:00.501Z,6.60
2019-03-31T06:10:06.656Z,6.90
2019-03-31T06:15:11.484Z,7.20
2019-03-31T06:20:16.321Z,7.50
2019-03-31T06:25:21.184Z,7.70
2019-03-31T06:30:26.169Z,7.90
2019-03-31T06:35:31.015Z,8.20
2019-03-31T06:40:35.998Z,8.40
2019-03-31T06:45:40.765Z,8.70
2019-03-31T06:50:45.594Z,9.00
2019-03-31T06:55:50.441Z,9.20
2019-03-31T07:00:55.202Z,9.30
2019-03-31T07:06:00.036Z,9.40
2019-03-31T07:11:04.882Z,9.60
2019-03-31T07:16:09.742Z,9.90
2019-03-31T07:21:14.585Z,10.00
2019-03-31T07:26:19.439Z,10.10
2019-03-31T07:31:24.390Z,10.30
2019-03-31T07:36:29.224Z,10.40
2019-03-31T07:41:34.676Z,10.60
2019-03-31T07:46:39.434Z,10.60
2019-03-31T07:51:44.327Z,10.90
2019-03-31T07:56:49.094Z,11.00
2019-03-31T08:01:53.803Z,11.00
2019-03-31T08:06:58.640Z,11.30
2019-03-31T08:12:03.486Z,11.30
2019-03-31T08:17:08.364Z,11.70
2019-03-31T08:22:13.209Z,11.90
2019-03-31T08:27:18.153Z,11.60
2019-03-31T08:32:23.211Z,11.40
2019-03-31T08:37:28.053Z,11.80
2019-03-31T08:42:32.909Z,11.70
2019-03-31T08:47:38.150Z,11.30
2019-03-31T08:52:42.980Z,11.60
2019-03-31T08:57:47.821Z,11.70
2019-03-31T09:02:52.598Z,11.50
2019-03-31T09:07:57.436Z,11.80
2019-03-31T09:13:02.279Z,11.40
2019-03-31T09:18:07.104Z,12.40
2019-03-31T09:23:11.936Z,12.10
2019-03-31T09:28:16.788Z,11.90
2019-03-31T09:33:22.029Z,11.40
2019-03-31T09:38:26.866Z,11.40
2019-03-31T09:43:31.708Z,11.10
2019-03-31T09:48:36.562Z,11.40
2019-03-31T09:53:41.397Z,11.60
2019-03-31T09:58:46.170Z,11.40
2019-03-31T10:03:51.023Z,11.50
2019-03-31T10:08:55.866Z,11.30
2019-03-31T10:14:00.630Z,11.60
2019-03-31T10:19:05.477Z,11.60
2019-03-31T10:24:10.310Z,11.50
2019-03-31T10:29:15.156Z,11.30
2019-03-31T10:34:20.777Z,11.30
2019-03-31T10:39:25.704Z,11.50
2019-03-31T10:44:30.682Z,11.50
2019-03-31T10:49:35.526Z,11.80
2019-03-31T10:54:40.357Z,12.00
2019-03-31T10:59:45.214Z,12.40
2019-03-31T11:04:51.615Z,12.10
2019-03-31T11:09:56.532Z,12.10
2019-03-31T11:15:01.386Z,12.80
2019-03-31T11:20:07.317Z,12.80
2019-03-31T11:25:21.091Z,13.10
2019-03-31T11:30:18.877Z,12.30
2019-03-31T11:35:25.413Z,11.70
2019-03-31T11:40:30.560Z,11.90
2019-03-31T11:45:36.812Z,11.70
2019-03-31T11:50:43.258Z,12.00
2019-03-31T11:55:49.123Z,12.30
2019-03-31T12:00:55.522Z,11.60
2019-03-31T12:06:00.357Z,11.60
2019-03-31T12:11:05.369Z,12.00
2019-03-31T12:16:10.205Z,11.80
2019-03-31T12:21:15.045Z,11.60
2019-03-31T12:26:19.810Z,12.00
2019-03-31T12:31:24.674Z,12.00
2019-03-31T12:36:29.476Z,12.10
2019-03-31T12:41:34.332Z,12.20
2019-03-31T12:46:39.166Z,12.90
2019-03-31T12:51:44.009Z,13.30
2019-03-31T12:56:48.868Z,13.60
2019-03-31T13:01:53.670Z,13.10
2019-03-31T13:06:58.574Z,13.10
2019-03-31T13:12:03.423Z,13.30
2019-03-31T13:17:08.273Z,13.30
2019-03-31T13:22:13.250Z,13.30
2019-03-31T13:27:18.113Z,13.10
2019-03-31T13:32:23.455Z,13.00
2019-03-31T13:37:28.328Z,12.60
2019-03-31T13:42:33.222Z,12.80
2019-03-31T13:47:38.092Z,12.80
2019-03-31T13:52:42.944Z,12.80
2019-03-31T13:57:49.109Z,12.70
2019-03-31T14:02:54.256Z,12.60
2019-03-31T14:07:59.121Z,12.70
2019-03-31T14:13:04.348Z,12.80
2019-03-31T14:18:09.217Z,12.60
2019-03-31T14:23:14.209Z,12.70
2019-03-31T14:28:19.007Z,12.50
2019-03-31T14:33:24.132Z,12.30
2019-03-31T14:38:39.473Z,12.50
2019-03-31T14:43:35.571Z,12.30
2019-03-31T14:48:40.436Z,12.00
2019-03-31T14:53:45.298Z,12.20
2019-03-31T14:58:50.084Z,12.20
2019-03-31T15:03:54.876Z,12.10
2019-03-31T15:08:59.729Z,12.40
2019-03-31T15:14:04.577Z,12.00
2019-03-31T15:19:09.433Z,12.00
2019-03-31T15:24:14.830Z,11.90
2019-03-31T15:29:19.699Z,11.80
2019-03-31T15:34:24.561Z,11.20
2019-03-31T15:39:29.424Z,11.20
2019-03-31T15:44:34.382Z,11.10
2019-03-31T15:49:40.635Z,11.00
2019-03-31T15:54:45.484Z,10.90
2019-03-31T15:59:54.419Z,10.80
2019-03-31T16:05:12.815Z,10.80
2019-03-31T16:10:17.898Z,10.80
2019-03-31T16:15:22.803Z,10.60
2019-03-31T16:20:28.059Z,10.60
2019-03-31T16:25:34.567Z,10.30
2019-03-31T16:30:39.529Z,10.10
2019-03-31T16:35:44.389Z,9.90
2019-03-31T16:40:49.282Z,9.70
2019-03-31T16:45:54.518Z,9.60
2019-03-31T16:50:59.392Z,9.60
2019-03-31T16:56:04.256Z,9.30
2019-03-31T17:01:09.122Z,9.20
2019-03-31T17:06:13.998Z,9.10
2019-03-31T17:11:18.874Z,8.90
2019-03-31T17:16:23.736Z,8.60
2019-03-31T17:21:28.597Z,8.40
2019-03-31T17:26:33.443Z,8.30
2019-03-31T17:31:38.391Z,8.00
2019-03-31T17:36:43.177Z,7.90
2019-03-31T17:41:48.210Z,7.60
2019-03-31T17:46:53.157Z,7.50
2019-03-31T17:52:01.052Z,7.30
2019-03-31T17:57:04.489Z,7.20
2019-03-31T18:02:09.346Z,7.10
2019-03-31T18:07:14.199Z,7.00
2019-03-31T18:12:19.056Z,6.80
2019-03-31T18:17:23.915Z,6.70
2019-03-31T18:22:28.755Z,6.60
2019-03-31T18:27:33.608Z,6.50
2019-03-31T18:32:38.619Z,6.40
2019-03-31T18:37:43.485Z,6.30
2019-03-31T18:42:48.312Z,6.20
2019-03-31T18:47:53.281Z,6.20
2019-03-31T18:52:58.145Z,6.10
2019-03-31T18:58:10.346Z,6.00
2019-03-31T19:03:22.551Z,5.90
2019-03-31T19:08:47.814Z,5.80
2019-03-31T19:13:57.281Z,5.60
2019-03-31T19:19:10.298Z,5.50
2019-03-31T19:24:22.901Z,5.40
2019-03-31T19:29:45.925Z,5.30
2019-03-31T19:35:16.837Z,5.30
2019-03-31T19:40:26.441Z,5.20
2019-03-31T19:50:56.511Z,5.00
2019-03-31T19:56:07.786Z,5.00
2019-03-31T20:01:17.285Z,4.90
2019-03-31T20:06:38.933Z,4.80
2019-03-31T20:11:48.030Z,4.60
2019-03-31T20:16:54.532Z,4.40
2019-03-31T20:22:01.016Z,4.20
2019-03-31T20:27:07.519Z,4.10
2019-03-31T20:32:19.716Z,4.10
2019-03-31T20:37:29.336Z,4.00
2019-03-31T20:42:44.796Z,4.10
2019-03-31T20:47:49.665Z,4.10
2019-03-31T20:52:54.360Z,4.10
2019-03-31T20:57:59.293Z,4.00
2019-03-31T21:03:04.150Z,3.90
2019-03-31T21:08:09.114Z,3.80
2019-03-31T21:13:13.987Z,3.70
2019-03-31T21:18:18.838Z,3.70
2019-03-31T21:23:24.214Z,3.70
2019-03-31T21:28:29.076Z,3.60
2019-03-31T21:33:33.942Z,3.60
2019-03-31T21:38:38.660Z,3.50
2019-03-31T21:43:43.516Z,3.40
2019-03-31T21:48:48.475Z,3.40
2019-03-31T21:53:53.324Z,3.20
2019-03-31T21:58:58.209Z,3.10
2019-03-31T22:04:03.141Z,3.00
2019-03-31T22:09:10.169Z,2.90
2019-03-31T22:14:15.034Z,2.90
2019-03-31T22:19:19.902Z,2.80
2019-03-31T22:24:24.753Z,2.70
2019-03-31T22:29:30.927Z,2.60
2019-03-31T22:34:35.723Z,2.60
2019-03-31T22:39:40.562Z,2.40
2019-03-31T22:44:45.404Z,2.40
2019-03-31T22:49:50.323Z,2.30
2019-03-31T22:54:55.153Z,2.30
2019-03-31T23:00:00.025Z,2.20
2019-03-31T23:05:05.562Z,2.20
2019-03-31T23:10:10.558Z,2.10
2019-03-31T23:15:15.417Z,2.00
2019-03-31T23:20:20.197Z,1.90
2019-03-31T23:25:25.066Z,1.80
2019-03-31T23:30:30.575Z,1.80
2019-03-31T23:35:35.450Z,1.60
2019-03-31T23:40:40.319Z,1.60
2019-03-31T23:45:45.153Z,1.50
2019-03-31T23:50:50.024Z,1.40
2019-03-31T23:55:54.886Z,1.40
